Time;durP1;ratioP1;P1;durP2;ratioP2;P2;SDS_P1;SDS_P2;PMS_P1;PMS_P2;Temp;Humidity;BMP_temperature;BMP_pressure;BME280_temperature;BME280_humidity;BME280_pressure;Samples;Min_cycle;Max_cycle;Signal;HPM_P1;HPM_P2
2023/04/15 00:00:52;;;;;;;0.80;0.80;;;;;;;;;;5017073;28;20057;-77
2023/04/15 00:03:21;;;;;;;0.90;0.90;;;;;;;;;;5013205;28;20021;-77
2023/04/15 00:05:47;;;;;;;1.35;1.08;;;;;;;;;;5012455;28;20026;-77
2023/04/15 00:08:14;;;;;;;2.20;0.98;;;;;;;;;;5013776;28;20495;-77
2023/04/15 00:10:43;;;;;;;0.90;0.85;;;;;;;;;;5015681;28;20029;-77
2023/04/15 00:13:09;;;;;;;2.08;1.25;;;;;;;;;;5010548;28;20037;-77
2023/04/15 00:15:36;;;;;;;1.55;1.10;;;;;;;;;;5010358;28;20083;-77
2023/04/15 00:18:03;;;;;;;1.05;1.00;;;;;;;;;;5012463;28;20045;-77
2023/04/15 00:20:29;;;;;;;1.45;1.10;;;;;;;;;;5011679;28;20105;-78
2023/04/15 00:22:55;;;;;;;1.35;1.25;;;;;;;;;;5020193;28;20041;-77
2023/04/15 00:25:21;;;;;;;1.23;1.02;;;;;;;;;;5015088;28;20476;-78
2023/04/15 00:27:47;;;;;;;2.00;1.20;;;;;;;;;;5011936;28;20036;-78
2023/04/15 00:30:13;;;;;;;1.15;1.05;;;;;;;;;;5015553;28;20049;-77
2023/04/15 00:32:41;;;;;;;1.77;1.00;;;;;;;;;;5020850;28;20097;-77
2023/04/15 00:35:07;;;;;;;1.33;0.95;;;;;;;;;;5019344;28;20048;-77
2023/04/15 00:37:34;;;;;;;2.40;1.63;;;;;;;;;;5022182;28;20041;-77
2023/04/15 00:40:00;;;;;;;1.38;1.23;;;;;;;;;;5017099;28;20029;-77
2023/04/15 00:42:27;;;;;;;1.52;1.20;;;;;;;;;;5013495;28;20428;-77
2023/04/15 00:44:53;;;;;;;0.82;0.80;;;;;;;;;;5017878;28;20032;-77
2023/04/15 00:47:20;;;;;;;1.42;1.00;;;;;;;;;;5018310;28;20495;-77
2023/04/15 00:49:46;;;;;;;1.25;0.90;;;;;;;;;;5016833;28;20061;-77
2023/04/15 00:52:12;;;;;;;2.38;1.77;;;;;;;;;;5016560;28;20038;-77
2023/04/15 00:54:37;;;;;;;2.22;1.25;;;;;;;;;;5006745;28;20080;-77
2023/04/15 00:57:05;;;;;;;1.65;1.25;;;;;;;;;;5011881;28;20029;-77
2023/04/15 00:59:33;;;;;;;1.73;1.15;;;;;;;;;;5012075;28;20503;-77
2023/04/15 01:01:59;;;;;;;1.02;0.85;;;;;;;;;;5008625;28;20021;-77
2023/04/15 01:04:25;;;;;;;1.95;1.20;;;;;;;;;;5014769;28;20024;-77
2023/04/15 01:06:51;;;;;;;2.35;1.17;;;;;;;;;;5009278;28;20029;-77
2023/04/15 01:09:17;;;;;;;1.42;1.10;;;;;;;;;;5008373;28;20045;-77
2023/04/15 01:11:43;;;;;;;1.35;1.23;;;;;;;;;;5009425;28;20057;-77
2023/04/15 01:14:10;;;;;;;1.98;1.15;;;;;;;;;;5018705;28;20018;-77
2023/04/15 01:16:38;;;;;;;2.13;1.30;;;;;;;;;;5008822;28;20041;-78
2023/04/15 01:19:04;;;;;;;2.67;1.40;;;;;;;;;;5011007;28;20029;-77
2023/04/15 01:21:30;;;;;;;1.63;1.17;;;;;;;;;;5014563;28;20497;-77
2023/04/15 01:23:57;;;;;;;1.45;1.10;;;;;;;;;;5009660;28;20014;-77
2023/04/15 01:26:23;;;;;;;2.15;1.30;;;;;;;;;;5008427;28;20459;-77
2023/04/15 01:28:49;;;;;;;1.30;1.20;;;;;;;;;;5017223;28;20025;-77
2023/04/15 01:31:16;;;;;;;1.67;1.35;;;;;;;;;;5013531;28;20052;-77
2023/04/15 01:33:42;;;;;;;2.30;1.15;;;;;;;;;;5012658;28;20064;-77
2023/04/15 01:36:09;;;;;;;1.58;1.13;;;;;;;;;;5016291;28;20036;-77
2023/04/15 01:38:36;;;;;;;1.92;1.17;;;;;;;;;;5006854;28;20042;-77
2023/04/15 01:41:06;;;;;;;1.05;0.98;;;;;;;;;;5009524;28;20033;-76
2023/04/15 01:43:32;;;;;;;1.40;1.08;;;;;;;;;;5011079;28;20041;-77
2023/04/15 01:45:58;;;;;;;2.38;1.20;;;;;;;;;;5009609;28;20485;-77
2023/04/15 01:48:25;;;;;;;2.15;1.42;;;;;;;;;;5010070;28;20013;-77
2023/04/15 01:50:51;;;;;;;1.27;1.02;;;;;;;;;;5011550;28;20026;-77
2023/04/15 01:53:17;;;;;;;3.03;1.35;;;;;;;;;;5016248;28;20536;-76
2023/04/15 01:55:43;;;;;;;1.35;1.15;;;;;;;;;;5016982;28;20033;-77
2023/04/15 01:58:09;;;;;;;2.60;1.33;;;;;;;;;;5003346;28;20408;-77
2023/04/15 02:00:35;;;;;;;1.77;1.48;;;;;;;;;;5013263;28;20017;-77
2023/04/15 02:03:01;;;;;;;3.00;2.00;;;;;;;;;;5010302;28;20059;-77
2023/04/15 02:05:27;;;;;;;2.50;1.48;;;;;;;;;;5015145;28;20492;-77
2023/04/15 02:07:53;;;;;;;1.65;1.30;;;;;;;;;;5006577;28;20032;-77
2023/04/15 02:10:19;;;;;;;1.98;1.38;;;;;;;;;;5007171;28;20040;-77
2023/04/15 02:12:45;;;;;;;2.65;1.33;;;;;;;;;;5006241;28;20108;-77
2023/04/15 02:15:11;;;;;;;1.35;1.25;;;;;;;;;;5008418;28;20212;-77
2023/04/15 02:17:37;;;;;;;3.03;1.67;;;;;;;;;;5014020;28;20811;-77
2023/04/15 02:20:07;;;;;;;2.33;1.33;;;;;;;;;;5006223;28;20033;-77
2023/04/15 02:22:33;;;;;;;1.42;1.30;;;;;;;;;;5008730;28;20029;-77
2023/04/15 02:24:59;;;;;;;2.05;1.40;;;;;;;;;;5017536;28;20152;-76
2023/04/15 02:27:27;;;;;;;1.17;0.98;;;;;;;;;;5016308;28;20049;-77
2023/04/15 02:29:52;;;;;;;2.25;1.55;;;;;;;;;;5015301;28;20041;-77
2023/04/15 02:32:19;;;;;;;1.60;1.20;;;;;;;;;;5011066;28;20076;-77
2023/04/15 02:34:45;;;;;;;3.03;1.38;;;;;;;;;;5013241;28;20108;-77
2023/04/15 02:37:12;;;;;;;2.58;1.48;;;;;;;;;;5010444;28;20028;-77
2023/04/15 02:39:38;;;;;;;1.65;1.13;;;;;;;;;;5008614;28;20695;-77
2023/04/15 02:42:07;;;;;;;2.22;1.50;;;;;;;;;;5010713;28;20033;-76
2023/04/15 02:44:35;;;;;;;1.90;1.40;;;;;;;;;;5014178;28;20104;-77
2023/04/15 02:47:02;;;;;;;1.58;1.40;;;;;;;;;;5013593;28;20105;-77
2023/04/15 02:49:29;;;;;;;1.58;1.30;;;;;;;;;;5012701;28;20033;-76
2023/04/15 02:51:57;;;;;;;2.00;1.40;;;;;;;;;;5008357;28;20503;-76
2023/04/15 02:54:23;;;;;;;1.50;1.40;;;;;;;;;;5008213;28;20061;-76
2023/04/15 02:56:49;;;;;;;4.63;1.40;;;;;;;;;;5010758;28;20033;-76
2023/04/15 02:59:15;;;;;;;1.35;1.10;;;;;;;;;;5011109;28;20029;-76
2023/04/15 03:01:42;;;;;;;1.70;1.35;;;;;;;;;;5008465;28;20076;-76
2023/04/15 03:04:08;;;;;;;1.38;1.23;;;;;;;;;;5007351;28;20022;-77
2023/04/15 03:06:34;;;;;;;2.05;1.40;;;;;;;;;;5011358;28;20071;-77
2023/04/15 03:09:01;;;;;;;3.45;1.60;;;;;;;;;;5006086;28;20022;-77
2023/04/15 03:11:27;;;;;;;3.50;1.63;;;;;;;;;;5018550;28;20033;-77
2023/04/15 03:13:53;;;;;;;2.22;1.27;;;;;;;;;;5007565;28;20091;-77
2023/04/15 03:16:19;;;;;;;2.25;1.70;;;;;;;;;;5013366;28;20103;-77
2023/04/15 03:18:45;;;;;;;1.85;1.27;;;;;;;;;;5012929;28;20029;-77
2023/04/15 03:21:11;;;;;;;1.77;1.40;;;;;;;;;;5008911;28;20021;-76
2023/04/15 03:23:37;;;;;;;2.47;1.70;;;;;;;;;;5012503;28;20119;-76
2023/04/15 03:26:03;;;;;;;1.65;1.20;;;;;;;;;;5010317;28;20026;-76
2023/04/15 03:28:29;;;;;;;1.30;1.20;;;;;;;;;;5019946;28;20109;-76
2023/04/15 03:30:56;;;;;;;2.38;1.27;;;;;;;;;;5019953;28;20022;-76
2023/04/15 03:33:21;;;;;;;2.22;1.58;;;;;;;;;;5020396;28;20018;-76
2023/04/15 03:35:47;;;;;;;1.90;1.50;;;;;;;;;;5009767;28;20388;-77
2023/04/15 03:38:13;;;;;;;2.10;1.40;;;;;;;;;;5015938;28;20044;-77
2023/04/15 03:40:41;;;;;;;2.30;1.80;;;;;;;;;;5014216;28;20037;-77
2023/04/15 03:43:07;;;;;;;1.77;1.60;;;;;;;;;;5006998;28;20037;-77
2023/04/15 03:45:33;;;;;;;2.65;1.73;;;;;;;;;;5016638;28;20030;-76
2023/04/15 03:47:59;;;;;;;2.15;1.52;;;;;;;;;;5012014;28;20030;-76
2023/04/15 03:50:24;;;;;;;3.50;1.42;;;;;;;;;;5007425;28;20049;-76
2023/04/15 03:52:50;;;;;;;3.45;1.50;;;;;;;;;;5008529;28;20065;-76
2023/04/15 03:55:16;;;;;;;2.75;1.50;;;;;;;;;;5015069;28;20045;-76
2023/04/15 03:57:45;;;;;;;2.58;1.70;;;;;;;;;;5017142;28;20089;-76
2023/04/15 04:00:11;;;;;;;1.88;1.30;;;;;;;;;;5007949;28;20033;-76
2023/04/15 04:02:37;;;;;;;1.85;1.33;;;;;;;;;;5008542;28;20033;-76
2023/04/15 04:05:03;;;;;;;2.05;1.30;;;;;;;;;;5008464;28;20041;-77
2023/04/15 04:07:29;;;;;;;2.08;1.52;;;;;;;;;;5011530;28;20024;-77
2023/04/15 04:09:56;;;;;;;2.22;1.40;;;;;;;;;;5012733;28;20041;-77
2023/04/15 04:12:22;;;;;;;2.55;1.60;;;;;;;;;;5010913;28;20033;-76
2023/04/15 04:14:48;;;;;;;2.88;1.40;;;;;;;;;;5006452;28;20030;-76
2023/04/15 04:17:14;;;;;;;1.63;1.30;;;;;;;;;;5013019;28;20489;-76
2023/04/15 04:19:40;;;;;;;2.33;1.15;;;;;;;;;;5012161;28;20034;-76
2023/04/15 04:22:06;;;;;;;3.00;1.40;;;;;;;;;;5021119;28;20025;-76
2023/04/15 04:24:32;;;;;;;2.38;1.35;;;;;;;;;;5012299;28;20668;-77
2023/04/15 04:26:58;;;;;;;2.45;1.50;;;;;;;;;;5015006;28;20033;-76
2023/04/15 04:29:25;;;;;;;2.10;1.50;;;;;;;;;;5012722;28;20030;-76
2023/04/15 04:31:50;;;;;;;2.90;1.80;;;;;;;;;;5011827;28;20470;-77
2023/04/15 04:34:16;;;;;;;1.45;1.08;;;;;;;;;;5015950;28;20034;-77
2023/04/15 04:36:43;;;;;;;2.03;1.30;;;;;;;;;;5012068;28;20026;-77
2023/04/15 04:39:09;;;;;;;1.98;1.38;;;;;;;;;;5013152;28;20026;-76
2023/04/15 04:41:35;;;;;;;3.47;1.80;;;;;;;;;;5020852;28;20022;-77
2023/04/15 04:44:01;;;;;;;2.40;1.75;;;;;;;;;;5013196;28;20025;-77
2023/04/15 04:46:27;;;;;;;2.38;1.48;;;;;;;;;;5012772;28;20026;-76
2023/04/15 04:48:53;;;;;;;2.58;1.52;;;;;;;;;;5006206;28;20026;-77
2023/04/15 04:51:19;;;;;;;3.15;1.33;;;;;;;;;;5016742;28;20028;-77
2023/04/15 04:53:45;;;;;;;2.08;1.58;;;;;;;;;;5009907;28;20110;-77
2023/04/15 04:56:11;;;;;;;2.15;1.42;;;;;;;;;;5016585;28;20068;-77
2023/04/15 04:58:37;;;;;;;2.33;1.33;;;;;;;;;;5013796;28;20026;-77
2023/04/15 05:01:03;;;;;;;3.45;1.52;;;;;;;;;;5020003;28;20029;-76
2023/04/15 05:03:29;;;;;;;2.33;1.63;;;;;;;;;;5013958;28;20021;-77
2023/04/15 05:05:55;;;;;;;1.63;1.35;;;;;;;;;;5007733;28;20381;-77
2023/04/15 05:08:21;;;;;;;3.08;1.88;;;;;;;;;;5008873;28;20479;-77
2023/04/15 05:10:48;;;;;;;2.25;1.55;;;;;;;;;;5016678;28;20032;-77
2023/04/15 05:13:13;;;;;;;1.30;1.20;;;;;;;;;;5015869;28;20041;-77
2023/04/15 05:15:42;;;;;;;3.00;1.33;;;;;;;;;;5009618;28;20088;-76
2023/04/15 05:18:08;;;;;;;2.13;1.33;;;;;;;;;;5016585;28;20076;-77
2023/04/15 05:20:34;;;;;;;1.58;1.30;;;;;;;;;;5009676;28;20030;-77
2023/04/15 05:22:59;;;;;;;2.45;1.45;;;;;;;;;;5015424;28;20040;-77
2023/04/15 05:25:25;;;;;;;2.53;1.20;;;;;;;;;;5010621;28;20714;-77
2023/04/15 05:27:51;;;;;;;1.88;1.40;;;;;;;;;;5012629;28;20022;-77
2023/04/15 05:30:17;;;;;;;3.60;1.65;;;;;;;;;;5010759;28;20026;-85
2023/04/15 05:32:43;;;;;;;2.38;1.17;;;;;;;;;;5012586;28;20377;-85
2023/04/15 05:35:09;;;;;;;2.78;1.17;;;;;;;;;;5008294;28;20029;-85
2023/04/15 05:37:35;;;;;;;1.90;1.30;;;;;;;;;;5015436;28;20510;-85
2023/04/15 05:40:01;;;;;;;2.08;0.98;;;;;;;;;;5013306;28;20570;-85
2023/04/15 05:42:27;;;;;;;1.92;1.50;;;;;;;;;;5010555;28;20587;-86
2023/04/15 05:44:53;;;;;;;2.28;1.42;;;;;;;;;;5011952;28;20034;-75
2023/04/15 05:47:19;;;;;;;1.45;1.08;;;;;;;;;;5006135;28;20037;-85
2023/04/15 05:49:45;;;;;;;1.52;1.25;;;;;;;;;;5007876;28;20032;-83
2023/04/15 05:52:11;;;;;;;3.75;1.70;;;;;;;;;;5011488;28;20021;-81
2023/04/15 05:54:37;;;;;;;2.22;1.25;;;;;;;;;;5011760;28;20045;-83
2023/04/15 05:57:03;;;;;;;1.80;1.50;;;;;;;;;;5010242;28;20029;-81
2023/04/15 05:59:29;;;;;;;2.30;1.73;;;;;;;;;;5008130;28;20052;-81
2023/04/15 06:01:56;;;;;;;2.47;1.42;;;;;;;;;;5011250;28;20036;-80
2023/04/15 06:04:22;;;;;;;1.25;1.15;;;;;;;;;;5016020;28;20044;-80
2023/04/15 06:06:48;;;;;;;2.65;1.45;;;;;;;;;;5014122;28;20026;-81
2023/04/15 06:09:14;;;;;;;2.47;1.40;;;;;;;;;;5017934;28;20041;-80
2023/04/15 06:11:40;;;;;;;1.85;1.38;;;;;;;;;;5012938;28;20084;-83
2023/04/15 06:14:06;;;;;;;2.05;1.40;;;;;;;;;;5011160;28;20022;-81
2023/04/15 06:16:32;;;;;;;2.08;1.40;;;;;;;;;;5011738;28;20112;-81
2023/04/15 06:18:58;;;;;;;1.73;1.38;;;;;;;;;;5010893;28;20030;-81
2023/04/15 06:21:24;;;;;;;3.08;1.98;;;;;;;;;;5014430;28;20025;-83
2023/04/15 06:23:50;;;;;;;3.92;2.17;;;;;;;;;;5017096;28;20037;-81
2023/04/15 06:26:16;;;;;;;1.45;1.27;;;;;;;;;;5010296;28;20409;-80
2023/04/15 06:28:42;;;;;;;2.47;1.70;;;;;;;;;;5012388;28;20036;-78
2023/04/15 06:31:08;;;;;;;3.25;2.08;;;;;;;;;;5007227;28;20033;-80
2023/04/15 06:33:34;;;;;;;3.53;1.75;;;;;;;;;;5012562;28;20080;-80
2023/04/15 06:36:00;;;;;;;2.83;1.90;;;;;;;;;;5013845;28;20481;-87
2023/04/15 06:38:26;;;;;;;2.90;1.75;;;;;;;;;;5015918;28;20017;-86
2023/04/15 06:40:55;;;;;;;2.58;2.03;;;;;;;;;;5006538;28;20033;-85
2023/04/15 06:43:21;;;;;;;2.75;1.77;;;;;;;;;;5013929;28;20155;-80
2023/04/15 06:45:47;;;;;;;2.58;1.58;;;;;;;;;;5020024;28;20795;-84
2023/04/15 06:48:13;;;;;;;2.20;1.60;;;;;;;;;;5024042;28;20052;-81
2023/04/15 06:50:39;;;;;;;3.13;1.40;;;;;;;;;;5022373;28;20110;-76
2023/04/15 06:53:05;;;;;;;3.15;2.22;;;;;;;;;;5021477;28;20047;-95
2023/04/15 06:55:32;;;;;;;4.75;1.88;;;;;;;;;;5019389;28;20037;-91
2023/04/15 06:57:58;;;;;;;3.08;1.83;;;;;;;;;;5024039;28;20738;-93
2023/04/15 07:00:25;;;;;;;3.30;2.28;;;;;;;;;;5019900;28;20029;-88
2023/04/15 07:02:51;;;;;;;3.13;2.00;;;;;;;;;;5019196;28;20034;-84
2023/04/15 07:05:17;;;;;;;2.75;1.80;;;;;;;;;;5010983;28;20021;-83
2023/04/15 07:07:44;;;;;;;3.38;2.05;;;;;;;;;;5009303;28;20022;-87
2023/04/15 07:10:10;;;;;;;4.32;2.17;;;;;;;;;;5019927;28;20063;-83
2023/04/15 07:12:36;;;;;;;2.13;1.67;;;;;;;;;;5022033;28;20412;-85
2023/04/15 07:15:03;;;;;;;3.47;2.00;;;;;;;;;;5028588;28;20029;-84
2023/04/15 07:17:28;;;;;;;3.47;1.85;;;;;;;;;;5028171;28;20065;-85
2023/04/15 07:19:54;;;;;;;2.10;1.60;;;;;;;;;;5024161;28;20028;-88
2023/04/15 07:22:20;;;;;;;5.43;2.35;;;;;;;;;;5025753;28;20080;-83
2023/04/15 07:24:46;;;;;;;2.45;1.70;;;;;;;;;;5027625;28;20112;-79
2023/04/15 07:27:12;;;;;;;2.75;1.65;;;;;;;;;;5027052;28;20028;-80
2023/04/15 07:29:38;;;;;;;3.17;1.67;;;;;;;;;;5026355;28;20492;-80
2023/04/15 07:32:05;;;;;;;2.75;1.95;;;;;;;;;;5024741;28;20503;-81
2023/04/15 07:34:31;;;;;;;3.72;2.22;;;;;;;;;;5026347;28;20037;-81
2023/04/15 07:36:57;;;;;;;2.13;1.92;;;;;;;;;;5027783;28;20041;-81
2023/04/15 07:39:23;;;;;;;2.50;1.90;;;;;;;;;;5026034;28;20029;-82
2023/04/15 07:41:49;;;;;;;5.40;2.05;;;;;;;;;;5023736;28;20026;-81
2023/04/15 07:44:15;;;;;;;3.30;1.92;;;;;;;;;;5015565;28;20075;-81
2023/04/15 07:46:41;;;;;;;3.47;2.10;;;;;;;;;;5017655;28;20029;-81
2023/04/15 07:49:25;;;;;;;3.30;1.58;;;;;;;;;;5020770;28;20030;-81
2023/04/15 07:51:51;;;;;;;2.17;1.60;;;;;;;;;;5016221;28;20572;-81
2023/04/15 07:54:17;;;;;;;4.40;2.00;;;;;;;;;;5021509;28;20369;-81
2023/04/15 07:56:43;;;;;;;3.13;2.20;;;;;;;;;;5021184;28;20083;-80
2023/04/15 07:59:09;;;;;;;2.88;2.10;;;;;;;;;;5016461;28;20392;-81
2023/04/15 08:01:35;;;;;;;2.47;1.77;;;;;;;;;;5013407;28;20120;-82
2023/04/15 08:04:01;;;;;;;3.38;1.85;;;;;;;;;;5026468;28;20029;-81
2023/04/15 08:06:28;;;;;;;1.98;1.58;;;;;;;;;;5027046;28;20101;-81
2023/04/15 08:08:54;;;;;;;2.47;1.92;;;;;;;;;;5027688;28;20443;-81
2023/04/15 08:11:21;;;;;;;2.08;1.52;;;;;;;;;;5012476;28;20536;-81
2023/04/15 08:13:47;;;;;;;3.15;1.77;;;;;;;;;;5009689;28;20405;-82
2023/04/15 08:16:18;;;;;;;1.58;1.35;;;;;;;;;;5005849;28;20042;-81
2023/04/15 08:18:44;;;;;;;2.33;1.58;;;;;;;;;;5015962;28;20022;-82
2023/04/15 08:21:10;;;;;;;2.92;1.98;;;;;;;;;;5017191;28;20025;-82
2023/04/15 08:23:37;;;;;;;3.05;1.88;;;;;;;;;;5015193;28;20026;-81
2023/04/15 08:26:03;;;;;;;3.65;1.70;;;;;;;;;;5011218;28;20473;-80
2023/04/15 08:28:30;;;;;;;2.45;1.88;;;;;;;;;;5017778;28;20025;-80
2023/04/15 08:30:56;;;;;;;2.97;1.70;;;;;;;;;;5019761;28;20029;-80
2023/04/15 08:33:22;;;;;;;2.30;1.70;;;;;;;;;;5016471;28;20124;-81
2023/04/15 08:35:51;;;;;;;2.45;1.70;;;;;;;;;;5018937;28;20116;-80
2023/04/15 08:38:17;;;;;;;2.33;1.80;;;;;;;;;;5022541;28;20025;-80
2023/04/15 08:40:44;;;;;;;4.07;2.03;;;;;;;;;;5021748;28;20040;-81
2023/04/15 08:43:12;;;;;;;3.10;1.80;;;;;;;;;;5010091;28;20022;-81
2023/04/15 08:45:39;;;;;;;1.98;1.58;;;;;;;;;;5013679;28;20022;-81
2023/04/15 08:48:05;;;;;;;3.22;1.75;;;;;;;;;;5021128;28;20036;-81
2023/04/15 08:50:32;;;;;;;6.65;2.00;;;;;;;;;;5019673;28;20018;-81
2023/04/15 08:53:01;;;;;;;3.20;2.00;;;;;;;;;;5025318;28;20400;-81
2023/04/15 08:55:34;;;;;;;3.05;1.85;;;;;;;;;;5013558;28;20398;-80
2023/04/15 08:58:01;;;;;;;2.10;1.70;;;;;;;;;;5021640;28;20029;-82
2023/04/15 09:00:28;;;;;;;3.67;1.80;;;;;;;;;;5021725;28;20513;-80
2023/04/15 09:02:58;;;;;;;4.47;1.83;;;;;;;;;;5019691;28;20040;-80
2023/04/15 09:05:24;;;;;;;3.47;1.88;;;;;;;;;;5022200;28;20033;-80
2023/04/15 09:07:50;;;;;;;3.28;2.17;;;;;;;;;;5012042;28;20044;-78
2023/04/15 09:10:16;;;;;;;4.10;2.05;;;;;;;;;;5023864;28;20109;-79
2023/04/15 09:12:43;;;;;;;2.90;1.85;;;;;;;;;;5025533;28;20042;-79
2023/04/15 09:15:11;;;;;;;3.08;2.08;;;;;;;;;;5016574;28;20056;-80
2023/04/15 09:17:42;;;;;;;2.67;1.85;;;;;;;;;;5009382;28;20048;-78
2023/04/15 09:20:15;;;;;;;2.67;2.05;;;;;;;;;;5023719;28;20036;-80
2023/04/15 09:22:41;;;;;;;1.88;1.55;;;;;;;;;;5023828;28;20084;-79
2023/04/15 09:25:26;;;;;;;2.38;1.73;;;;;;;;;;5020122;28;20029;-79
2023/04/15 09:27:59;;;;;;;2.30;1.63;;;;;;;;;;5029774;28;20391;-83
2023/04/15 09:30:27;;;;;;;2.60;1.60;;;;;;;;;;5015353;28;20480;-83
2023/04/15 09:32:54;;;;;;;2.22;1.35;;;;;;;;;;5002425;28;20338;-82
2023/04/15 09:35:21;;;;;;;1.83;1.60;;;;;;;;;;5016301;28;20481;-83
2023/04/15 09:37:47;;;;;;;5.43;2.00;;;;;;;;;;5020859;28;20087;-81
2023/04/15 09:40:13;;;;;;;2.45;1.85;;;;;;;;;;5012339;28;20033;-83
2023/04/15 09:42:55;;;;;;;3.17;1.65;;;;;;;;;;5008241;28;20061;-82
2023/04/15 09:45:21;;;;;;;2.13;1.50;;;;;;;;;;5011662;28;20049;-80
2023/04/15 09:47:47;;;;;;;2.47;1.90;;;;;;;;;;5015131;28;20037;-78
2023/04/15 09:50:14;;;;;;;1.80;1.38;;;;;;;;;;5008226;28;20037;-83
2023/04/15 09:52:43;;;;;;;1.85;1.65;;;;;;;;;;5009305;28;20125;-83
2023/04/15 09:55:10;;;;;;;3.00;1.60;;;;;;;;;;5012455;28;20033;-81
2023/04/15 09:57:36;;;;;;;1.88;1.60;;;;;;;;;;5014103;28;20349;-80
2023/04/15 10:00:07;;;;;;;2.80;1.83;;;;;;;;;;5006584;28;20045;-81
2023/04/15 10:02:35;;;;;;;2.50;1.67;;;;;;;;;;5012659;28;20108;-75
2023/04/15 10:05:02;;;;;;;2.58;2.22;;;;;;;;;;5006385;28;20029;-80
2023/04/15 10:07:28;;;;;;;4.22;2.22;;;;;;;;;;5012583;28;20021;-77
2023/04/15 10:09:55;;;;;;;2.20;1.63;;;;;;;;;;5006090;28;20036;-74
2023/04/15 10:12:21;;;;;;;3.20;1.70;;;;;;;;;;5011078;28;20025;-76
2023/04/15 10:14:48;;;;;;;2.22;1.77;;;;;;;;;;5009356;28;20179;-76
2023/04/15 10:17:17;;;;;;;2.35;1.63;;;;;;;;;;5009950;28;20099;-74
2023/04/15 10:19:43;;;;;;;2.10;1.67;;;;;;;;;;5010203;28;20033;-76
2023/04/15 10:22:09;;;;;;;3.53;1.77;;;;;;;;;;5008494;28;20437;-77
2023/04/15 10:24:36;;;;;;;3.50;2.08;;;;;;;;;;5010568;28;20030;-75
2023/04/15 10:27:05;;;;;;;5.13;2.10;;;;;;;;;;5010163;28;20025;-74
2023/04/15 10:29:31;;;;;;;2.90;1.83;;;;;;;;;;5012636;28;20113;-73
2023/04/15 10:31:59;;;;;;;2.10;1.70;;;;;;;;;;5018650;28;20085;-72
2023/04/15 10:34:25;;;;;;;2.28;1.70;;;;;;;;;;5012538;28;20026;-73
2023/04/15 10:36:55;;;;;;;2.53;1.67;;;;;;;;;;5006282;28;20030;-72
2023/04/15 10:39:33;;;;;;;2.40;2.00;;;;;;;;;;5010062;28;20033;-79
2023/04/15 10:42:06;;;;;;;2.33;1.80;;;;;;;;;;5008875;28;20620;-79
2023/04/15 10:44:32;;;;;;;2.72;1.50;;;;;;;;;;5013913;28;20148;-83
2023/04/15 10:46:58;;;;;;;3.30;1.75;;;;;;;;;;5009495;28;20105;-77
2023/04/15 10:49:27;;;;;;;2.58;1.52;;;;;;;;;;5013387;28;20476;-82
2023/04/15 10:51:58;;;;;;;4.07;1.98;;;;;;;;;;5010921;28;20361;-83
2023/04/15 10:54:24;;;;;;;;;;;;;;;;;;5016469;28;20096;-82
2023/04/15 10:56:51;;;;;;;3.72;2.00;;;;;;;;;;5007578;28;19916;-81
2023/04/15 10:59:17;;;;;;;2.88;1.73;;;;;;;;;;5014018;28;20026;-86
2023/04/15 11:01:59;;;;;;;3.20;1.80;;;;;;;;;;5005391;28;20040;-89
2023/04/15 11:04:44;;;;;;;5.75;1.52;;;;;;;;;;5008139;28;20077;-86
2023/04/15 11:07:10;;;;;;;2.22;1.63;;;;;;;;;;5006995;28;20101;-82
2023/04/15 11:09:36;;;;;;;2.75;1.70;;;;;;;;;;5011367;28;20400;-79
2023/04/15 11:12:09;;;;;;;7.00;1.70;;;;;;;;;;5007567;28;20088;-79
2023/04/15 11:14:40;;;;;;;2.92;1.80;;;;;;;;;;5014652;28;20083;-79
2023/04/15 11:17:06;;;;;;;2.55;1.80;;;;;;;;;;5014585;28;20471;-80
2023/04/15 11:19:36;;;;;;;2.92;2.03;;;;;;;;;;5006691;28;20322;-82
2023/04/15 11:22:06;;;;;;;2.78;1.75;;;;;;;;;;5008171;28;20481;-79
2023/04/15 11:24:32;;;;;;;3.72;2.08;;;;;;;;;;5018275;28;20079;-80
2023/04/15 11:26:58;;;;;;;3.50;2.00;;;;;;;;;;5011299;28;20444;-85
2023/04/15 11:29:30;;;;;;;2.22;1.70;;;;;;;;;;5017066;28;20133;-75
2023/04/15 11:31:56;;;;;;;;;;;;;;;;;;5010972;28;20022;-88
2023/04/15 11:34:22;;;;;;;2.20;1.63;;;;;;;;;;5014754;28;19909;-92
2023/04/15 11:36:48;;;;;;;2.63;1.95;;;;;;;;;;5003446;28;20033;-89
2023/04/15 11:39:18;;;;;;;3.15;2.33;;;;;;;;;;5015689;28;20029;-84
2023/04/15 11:41:46;;;;;;;2.88;2.13;;;;;;;;;;5007909;28;20091;-87
2023/04/15 11:44:16;;;;;;;3.03;2.17;;;;;;;;;;5010770;28;20084;-88
2023/04/15 11:46:49;;;;;;;2.63;2.10;;;;;;;;;;5012408;28;20113;-86
2023/04/15 11:49:33;;;;;;;2.95;1.92;;;;;;;;;;5011871;28;20543;-89
2023/04/15 11:52:00;;;;;;;1.88;1.60;;;;;;;;;;5014796;28;20049;-89
2023/04/15 11:54:26;;;;;;;3.08;1.80;;;;;;;;;;5012625;28;20495;-84
2023/04/15 11:56:53;;;;;;;2.95;1.80;;;;;;;;;;5015577;28;20026;-83
2023/04/15 11:59:20;;;;;;;3.45;1.35;;;;;;;;;;5010663;28;20030;-85
2023/04/15 12:01:46;;;;;;;3.20;2.30;;;;;;;;;;5016068;28;20108;-88
2023/04/15 12:04:17;;;;;;;2.45;1.85;;;;;;;;;;5014203;28;20017;-82
2023/04/15 12:06:43;;;;;;;;;;;;;;;;;;5014129;28;20082;-81
2023/04/15 12:09:11;;;;;;;2.70;2.00;;;;;;;;;;5017170;28;20398;-90
2023/04/15 12:11:50;;;;;;;3.95;1.95;;;;;;;;;;5011470;28;20042;-78
2023/04/15 12:14:27;;;;;;;3.25;1.77;;;;;;;;;;5010727;28;20832;-75
2023/04/15 12:17:03;;;;;;;2.95;2.03;;;;;;;;;;5013020;28;20243;-75
2023/04/15 12:19:36;;;;;;;2.30;1.65;;;;;;;;;;5011531;28;20039;-76
2023/04/15 12:22:05;;;;;;;2.95;1.73;;;;;;;;;;5013456;28;20041;-76
2023/04/15 12:24:32;;;;;;;3.25;1.92;;;;;;;;;;5011158;28;20026;-76
2023/04/15 12:27:01;;;;;;;2.55;1.67;;;;;;;;;;5013355;28;20501;-76
2023/04/15 12:29:28;;;;;;;2.25;1.80;;;;;;;;;;5012413;28;20052;-76
2023/04/15 12:31:58;;;;;;;2.45;1.80;;;;;;;;;;5017955;28;20030;-77
2023/04/15 12:34:29;;;;;;;3.10;2.03;;;;;;;;;;5017128;28;20400;-77
2023/04/15 12:36:55;;;;;;;3.58;1.85;;;;;;;;;;5013662;28;20030;-76
2023/04/15 12:39:23;;;;;;;4.28;2.03;;;;;;;;;;5007954;28;20032;-76
2023/04/15 12:41:49;;;;;;;2.97;2.05;;;;;;;;;;5007391;28;20091;-76
2023/04/15 12:44:15;;;;;;;3.55;2.00;;;;;;;;;;5008338;28;20056;-76
2023/04/15 12:46:44;;;;;;;2.42;1.77;;;;;;;;;;5016251;28;20029;-76
2023/04/15 12:49:14;;;;;;;3.22;2.25;;;;;;;;;;5005769;28;20022;-77
2023/04/15 12:51:40;;;;;;;5.15;2.05;;;;;;;;;;5005783;28;20029;-76
2023/04/15 12:54:09;;;;;;;2.90;1.90;;;;;;;;;;5005909;28;20030;-76
2023/04/15 12:56:36;;;;;;;2.60;2.00;;;;;;;;;;5013081;28;20545;-77
2023/04/15 12:59:01;;;;;;;3.42;1.92;;;;;;;;;;5013183;28;20021;-76
2023/04/15 13:01:41;;;;;;;3.75;2.22;;;;;;;;;;5009657;28;20503;-76
2023/04/15 13:04:07;;;;;;;2.25;1.92;;;;;;;;;;5009717;28;20034;-76
2023/04/15 13:06:33;;;;;;;2.13;1.83;;;;;;;;;;5016236;28;20021;-76
2023/04/15 13:09:00;;;;;;;4.43;2.00;;;;;;;;;;5010489;28;20022;-76
2023/04/15 13:11:26;;;;;;;3.28;2.22;;;;;;;;;;5004651;28;20108;-76
2023/04/15 13:13:52;;;;;;;4.30;1.80;;;;;;;;;;5005472;28;20030;-75
2023/04/15 13:16:18;;;;;;;2.65;1.67;;;;;;;;;;5014239;28;20487;-75
2023/04/15 13:18:45;;;;;;;2.35;1.95;;;;;;;;;;5013050;28;20103;-75
2023/04/15 13:21:11;;;;;;;3.58;2.33;;;;;;;;;;5009541;28;20476;-75
2023/04/15 13:23:37;;;;;;;5.97;1.70;;;;;;;;;;5013773;28;20403;-74
2023/04/15 13:26:03;;;;;;;3.70;2.03;;;;;;;;;;5012554;28;20034;-76
2023/04/15 13:28:29;;;;;;;2.15;1.42;;;;;;;;;;5007701;28;20034;-76
2023/04/15 13:30:56;;;;;;;6.40;2.15;;;;;;;;;;5004728;28;21808;-76
2023/04/15 13:33:21;;;;;;;2.05;1.63;;;;;;;;;;5014054;28;20048;-74
2023/04/15 13:35:48;;;;;;;2.78;1.80;;;;;;;;;;5011040;28;20572;-75
2023/04/15 13:38:14;;;;;;;3.60;1.65;;;;;;;;;;5014820;28;21966;-76
2023/04/15 13:40:40;;;;;;;3.22;2.30;;;;;;;;;;5007939;28;20025;-76
2023/04/15 13:43:06;;;;;;;3.25;1.95;;;;;;;;;;5019333;28;20045;-77
2023/04/15 13:45:32;;;;;;;2.65;1.85;;;;;;;;;;5021374;28;20022;-77
2023/04/15 13:47:59;;;;;;;3.10;1.98;;;;;;;;;;5022675;28;20084;-74
2023/04/15 13:50:25;;;;;;;5.57;2.13;;;;;;;;;;5023013;28;20025;-76
2023/04/15 13:52:51;;;;;;;4.10;1.67;;;;;;;;;;5014799;28;20025;-76
2023/04/15 13:55:17;;;;;;;2.67;1.75;;;;;;;;;;5020997;28;20443;-79
2023/04/15 13:57:43;;;;;;;3.78;1.88;;;;;;;;;;5018405;28;20030;-78
2023/04/15 14:00:09;;;;;;;3.15;2.00;;;;;;;;;;5022825;28;20036;-76
2023/04/15 14:02:35;;;;;;;2.55;1.65;;;;;;;;;;5017925;28;20029;-83
2023/04/15 14:05:02;;;;;;;2.97;1.70;;;;;;;;;;5012830;28;20033;-85
2023/04/15 14:07:29;;;;;;;2.63;1.85;;;;;;;;;;5023747;28;20024;-88
2023/04/15 14:09:55;;;;;;;2.75;2.00;;;;;;;;;;5022942;28;20542;-88
2023/04/15 14:12:21;;;;;;;3.38;2.17;;;;;;;;;;5012885;28;20116;-90
2023/04/15 14:14:47;;;;;;;5.13;1.92;;;;;;;;;;5012428;28;20029;-76
2023/04/15 14:17:13;;;;;;;2.97;1.42;;;;;;;;;;5011146;28;20049;-81
2023/04/15 14:19:39;;;;;;;3.78;1.90;;;;;;;;;;5016488;28;20103;-87
2023/04/15 14:22:06;;;;;;;2.70;1.65;;;;;;;;;;5007061;28;20014;-84
2023/04/15 14:24:32;;;;;;;3.30;1.80;;;;;;;;;;5009904;28;20057;-79
2023/04/15 14:26:58;;;;;;;2.15;1.58;;;;;;;;;;5005699;28;20060;-84
2023/04/15 14:29:27;;;;;;;3.00;2.08;;;;;;;;;;5009373;28;20432;-86
2023/04/15 14:31:55;;;;;;;5.78;2.42;;;;;;;;;;5012680;28;20714;-86
2023/04/15 14:34:24;;;;;;;2.90;2.15;;;;;;;;;;5018644;28;20029;-80
2023/04/15 14:36:51;;;;;;;3.75;2.10;;;;;;;;;;5011606;28;20083;-83
2023/04/15 14:39:17;;;;;;;3.63;2.08;;;;;;;;;;5011670;28;20029;-83
2023/04/15 14:41:43;;;;;;;4.40;2.10;;;;;;;;;;5019391;28;20447;-87